Time;durP1;ratioP1;P1;durP2;ratioP2;P2;SDS_P1;SDS_P2;PMS_P1;PMS_P2;Temp;Humidity;BMP_temperature;BMP_pressure;BME280_temperature;BME280_humidity;BME280_pressure;Samples;Min_cycle;Max_cycle;Signal;HPM_P1;HPM_P2
2024/02/01 00:01:23;;;;;;;5.10;3.90;;;5.80;99.90;;;;;;5034991;28;20178;-91
2024/02/01 00:03:48;;;;;;;6.27;3.83;;;5.80;99.90;;;;;;5035226;28;20613;-91
2024/02/01 00:06:15;;;;;;;8.10;4.73;;;5.80;99.90;;;;;;5036658;28;20301;-87
2024/02/01 00:08:41;;;;;;;6.13;4.00;;;5.80;99.90;;;;;;5034823;28;20210;-89
2024/02/01 00:11:07;;;;;;;5.87;3.70;;;5.80;99.90;;;;;;5036334;28;20620;-88
2024/02/01 00:13:33;;;;;;;5.23;3.80;;;5.80;99.90;;;;;;5035108;28;20190;-92
2024/02/01 00:15:59;;;;;;;6.40;4.20;;;5.80;99.90;;;;;;5035764;28;20182;-89
2024/02/01 00:18:25;;;;;;;5.27;3.90;;;5.80;99.90;;;;;;5035936;28;20209;-90
2024/02/01 00:20:50;;;;;;;7.80;4.10;;;5.80;99.90;;;;;;5036051;28;20687;-90
2024/02/01 00:23:16;;;;;;;7.13;4.77;;;5.90;99.90;;;;;;5035868;28;20179;-88
2024/02/01 00:25:42;;;;;;;7.47;4.60;;;5.90;99.90;;;;;;5035931;28;20253;-88
2024/02/01 00:28:08;;;;;;;7.43;4.53;;;5.90;99.90;;;;;;5034639;28;20238;-87
2024/02/01 00:30:33;;;;;;;7.17;4.80;;;5.90;99.90;;;;;;5034199;28;20183;-87
2024/02/01 00:32:59;;;;;;;7.27;4.87;;;5.90;99.90;;;;;;5034567;28;20185;-89
2024/02/01 00:35:25;;;;;;;7.67;4.80;;;5.90;99.90;;;;;;5035617;28;20189;-88
2024/02/01 00:37:51;;;;;;;7.87;4.77;;;5.90;99.90;;;;;;5034213;28;20182;-88
2024/02/01 00:40:17;;;;;;;8.20;5.03;;;5.90;99.90;;;;;;5035380;28;20185;-89
2024/02/01 00:42:43;;;;;;;8.60;5.37;;;5.90;99.90;;;;;;5034500;28;20190;-89
2024/02/01 00:45:09;;;;;;;7.43;4.93;;;5.80;99.90;;;;;;5035509;28;20170;-90
2024/02/01 00:47:34;;;;;;;10.53;5.87;;;5.80;99.90;;;;;;5034369;28;20259;-89
2024/02/01 00:50:00;;;;;;;8.80;5.80;;;5.70;99.90;;;;;;5034183;28;20190;-92
2024/02/01 00:52:26;;;;;;;11.60;6.67;;;5.70;99.90;;;;;;5035353;28;20656;-90
2024/02/01 00:54:52;;;;;;;8.77;6.03;;;5.80;99.90;;;;;;5035453;28;20175;-91
2024/02/01 00:57:18;;;;;;;7.40;5.97;;;5.80;99.90;;;;;;5033769;28;20273;-93
2024/02/01 00:59:43;;;;;;;13.40;6.90;;;5.70;99.90;;;;;;5035415;28;20182;-94
2024/02/01 01:02:09;;;;;;;11.33;6.47;;;5.70;99.90;;;;;;5034621;28;20222;-95
2024/02/01 01:04:35;;;;;;;10.60;6.90;;;5.70;99.90;;;;;;5035047;28;20186;-96
2024/02/01 01:07:01;;;;;;;11.17;7.30;;;5.70;99.90;;;;;;5036495;28;20197;-94
2024/02/01 01:09:27;;;;;;;11.70;7.23;;;5.60;99.90;;;;;;5039173;28;20218;-96
2024/02/01 01:11:53;;;;;;;11.00;7.40;;;5.60;99.90;;;;;;5047350;28;20190;-95
2024/02/01 01:14:19;;;;;;;14.93;8.07;;;5.60;99.90;;;;;;5045175;28;20532;-96
2024/02/01 01:16:49;;;;;;;10.73;7.90;;;5.60;99.90;;;;;;5045506;28;20178;-96
2024/02/01 01:19:14;;;;;;;14.43;8.00;;;5.60;99.90;;;;;;5052619;28;20155;-96
2024/02/01 01:21:40;;;;;;;13.60;8.33;;;5.60;99.90;;;;;;5052645;28;20193;-92
2024/02/01 01:24:06;;;;;;;15.27;9.20;;;5.50;99.90;;;;;;5046343;28;20182;-96
2024/02/01 01:26:32;;;;;;;13.23;9.13;;;5.50;99.90;;;;;;5048931;28;20609;-96
2024/02/01 01:28:58;;;;;;;12.20;9.20;;;5.50;99.90;;;;;;5048264;28;20245;-96
2024/02/01 01:31:23;;;;;;;14.33;9.30;;;5.50;99.90;;;;;;5055060;22;20226;-95
2024/02/01 01:33:49;;;;;;;13.23;9.60;;;5.50;99.90;;;;;;5043499;28;20194;-92
2024/02/01 01:36:42;;;;;;;14.83;9.30;;;5.50;99.90;;;;;;5050697;22;20250;-96
2024/02/01 01:39:09;;;;;;;13.23;9.13;;;5.50;99.90;;;;;;5049114;28;20170;-95
2024/02/01 01:41:35;;;;;;;18.67;9.77;;;5.60;99.90;;;;;;5047972;28;20190;-96
2024/02/01 01:44:02;;;;;;;16.10;10.67;;;5.50;99.90;;;;;;5045420;28;20671;-96
2024/02/01 01:46:31;;;;;;;16.10;10.70;;;5.50;99.90;;;;;;5047569;28;20194;-96
2024/02/01 01:48:57;;;;;;;17.03;10.83;;;5.50;99.90;;;;;;5046458;28;20271;-94
2024/02/01 01:51:25;;;;;;;16.53;11.00;;;5.50;99.90;;;;;;5040809;28;20182;-96
2024/02/01 01:53:51;;;;;;;17.00;10.87;;;5.50;99.90;;;;;;5042570;28;20269;-95
2024/02/01 01:56:17;;;;;;;19.80;12.00;;;5.40;99.90;;;;;;5041085;28;20264;-96
2024/02/01 01:58:45;;;;;;;17.30;12.23;;;5.50;99.90;;;;;;5040269;28;20186;-89
2024/02/01 02:01:13;;;;;;;18.07;12.10;;;5.50;99.90;;;;;;5036432;28;20194;-96
2024/02/01 02:03:41;;;;;;;16.97;11.40;;;5.50;99.90;;;;;;5037285;28;20186;-93
2024/02/01 02:06:07;;;;;;;18.97;11.77;;;5.50;99.90;;;;;;5037459;28;20190;-96
2024/02/01 02:08:33;;;;;;;21.50;13.00;;;5.40;99.90;;;;;;5036840;28;20607;-93
2024/02/01 02:10:59;;;;;;;20.60;12.63;;;5.40;99.90;;;;;;5037458;28;20201;-96
2024/02/01 02:13:25;;;;;;;18.33;13.60;;;5.40;99.90;;;;;;5036241;28;20222;-91
2024/02/01 02:15:51;;;;;;;17.87;12.13;;;5.40;99.90;;;;;;5035157;28;20187;-93
2024/02/01 02:18:17;;;;;;;18.03;13.23;;;5.50;99.90;;;;;;5035018;28;20695;-95
2024/02/01 02:20:47;;;;;;;17.17;12.80;;;5.50;99.90;;;;;;5034866;28;20193;-95
2024/02/01 02:23:13;;;;;;;20.87;13.53;;;5.50;99.90;;;;;;5035743;28;20206;-93
2024/02/01 02:25:39;;;;;;;22.37;13.77;;;5.50;99.90;;;;;;5035399;28;20636;-94
2024/02/01 02:28:05;;;;;;;18.20;13.30;;;5.50;99.90;;;;;;5035194;28;20214;-94
2024/02/01 02:30:32;;;;;;;20.53;13.93;;;5.50;99.90;;;;;;5033975;28;20517;-94
2024/02/01 02:32:59;;;;;;;17.33;13.57;;;5.50;99.90;;;;;;5036428;28;20244;-93
2024/02/01 02:37:56;;;;;;;17.87;12.93;;;5.50;99.90;;;;;;4973181;28;20246;-84
2024/02/01 02:40:22;;;;;;;27.63;14.23;;;5.50;99.90;;;;;;4998628;28;20272;-84
2024/02/01 02:42:49;;;;;;;23.40;14.00;;;5.50;99.90;;;;;;5011622;28;20493;-84
2024/02/01 02:45:15;;;;;;;19.00;14.73;;;5.50;99.90;;;;;;5013850;28;20621;-84
2024/02/01 02:47:41;;;;;;;24.43;14.57;;;5.50;99.90;;;;;;5013710;28;20255;-82
2024/02/01 02:50:08;;;;;;;23.77;15.47;;;5.50;99.90;;;;;;5013862;28;20223;-84
2024/02/01 02:52:38;;;;;;;17.20;13.80;;;5.50;99.90;;;;;;4996651;28;20330;-85
2024/02/01 02:55:07;;;;;;;18.47;13.77;;;5.50;99.90;;;;;;4993039;28;20322;-86
2024/02/01 02:57:33;;;;;;;16.77;13.10;;;5.60;99.90;;;;;;5000220;28;20218;-85
2024/02/01 03:00:01;;;;;;;18.27;13.27;;;5.60;99.90;;;;;;4996240;28;20337;-85
2024/02/01 03:02:26;;;;;;;23.87;14.70;;;5.50;99.90;;;;;;4997778;28;20183;-84
2024/02/01 03:04:52;;;;;;;19.10;14.37;;;5.60;99.90;;;;;;4994249;28;20657;-85
2024/02/01 03:07:18;;;;;;;17.93;13.57;;;5.60;99.90;;;;;;4998064;28;20210;-86
2024/02/01 03:09:44;;;;;;;17.37;13.73;;;5.60;99.90;;;;;;4992822;28;20215;-85
2024/02/01 03:12:10;;;;;;;18.80;14.23;;;5.60;99.90;;;;;;5006417;28;20186;-84
2024/02/01 03:14:40;;;;;;;18.87;13.73;;;5.60;99.90;;;;;;4996659;28;20325;-84
2024/02/01 03:17:10;;;;;;;19.40;15.20;;;5.60;99.90;;;;;;4985047;28;20216;-85
2024/02/01 03:19:38;;;;;;;19.53;13.70;;;5.60;99.90;;;;;;4992527;28;20184;-84
2024/02/01 03:22:05;;;;;;;21.00;14.93;;;5.60;99.90;;;;;;4996154;28;20215;-84
2024/02/01 03:24:31;;;;;;;22.03;13.97;;;5.60;99.90;;;;;;4996170;28;20187;-84
2024/02/01 03:27:00;;;;;;;20.60;14.03;;;5.60;99.90;;;;;;4998593;28;20295;-84
2024/02/01 03:29:28;;;;;;;18.90;14.67;;;5.60;99.90;;;;;;5017015;28;20207;-84
2024/02/01 03:31:54;;;;;;;20.40;14.87;;;5.60;99.90;;;;;;4999553;28;20577;-84
2024/02/01 03:34:20;;;;;;;18.90;14.47;;;5.60;99.90;;;;;;5016671;28;20645;-83
2024/02/01 03:36:50;;;;;;;18.43;14.27;;;5.60;99.90;;;;;;4998861;28;20246;-82
2024/02/01 03:39:22;;;;;;;20.43;15.60;;;5.60;99.90;;;;;;5002535;28;20198;-81
2024/02/01 03:41:55;;;;;;;19.37;14.80;;;5.60;99.90;;;;;;5014717;28;20206;-81
2024/02/01 03:44:25;;;;;;;17.47;14.37;;;5.70;99.90;;;;;;5001752;28;20260;-81
2024/02/01 03:46:53;;;;;;;18.87;14.20;;;5.80;99.90;;;;;;5005370;28;20191;-82
2024/02/01 03:49:20;;;;;;;17.13;13.73;;;5.80;99.90;;;;;;5009857;28;20737;-82
2024/02/01 03:51:46;;;;;;;16.90;13.27;;;5.80;99.90;;;;;;4996555;28;20207;-82
2024/02/01 03:54:13;;;;;;;19.90;14.47;;;5.80;99.90;;;;;;5007518;28;20222;-83
2024/02/01 03:56:39;;;;;;;18.03;14.07;;;5.80;99.90;;;;;;5016493;28;20186;-81
2024/02/01 03:59:09;;;;;;;19.80;15.00;;;5.80;99.90;;;;;;5000440;28;20536;-82
2024/02/01 04:01:36;;;;;;;18.47;13.83;;;5.90;99.90;;;;;;4999731;28;20208;-82
2024/02/01 04:04:05;;;;;;;18.43;14.77;;;5.90;99.90;;;;;;4998738;28;20194;-82
2024/02/01 04:06:34;;;;;;;19.17;14.73;;;5.90;99.90;;;;;;5010568;28;20634;-81
2024/02/01 04:09:01;;;;;;;20.97;14.73;;;5.80;99.90;;;;;;5006294;28;20222;-82
2024/02/01 04:11:30;;;;;;;21.23;14.30;;;5.90;99.90;;;;;;5001936;28;20180;-82
2024/02/01 04:13:56;;;;;;;21.70;15.20;;;5.80;99.90;;;;;;4997184;28;20184;-83
2024/02/01 04:16:22;;;;;;;22.63;15.27;;;5.90;99.90;;;;;;5001123;28;20188;-82
2024/02/01 04:18:48;;;;;;;22.20;15.30;;;5.80;99.90;;;;;;4996262;28;20192;-81
2024/02/01 04:21:14;;;;;;;23.77;16.23;;;5.80;99.90;;;;;;5001602;28;20215;-81
2024/02/01 04:23:40;;;;;;;18.63;14.73;;;5.90;99.90;;;;;;4995272;28;20210;-81
2024/02/01 04:26:07;;;;;;;20.03;15.30;;;5.90;99.90;;;;;;5015928;28;20175;-82
2024/02/01 04:28:33;;;;;;;21.63;15.20;;;6.00;99.90;;;;;;4999204;28;20222;-81
2024/02/01 04:31:01;;;;;;;21.77;15.90;;;5.90;99.90;;;;;;5015203;28;20262;-81
2024/02/01 04:33:28;;;;;;;19.73;14.33;;;6.00;99.90;;;;;;5015339;28;20175;-83
2024/02/01 04:35:54;;;;;;;21.27;15.50;;;6.00;99.90;;;;;;5014694;28;20240;-81
2024/02/01 04:38:20;;;;;;;21.43;15.87;;;6.00;99.90;;;;;;5001346;28;20180;-82
2024/02/01 04:40:46;;;;;;;24.03;15.17;;;6.00;99.90;;;;;;5006339;28;20638;-81
2024/02/01 04:43:12;;;;;;;19.27;14.93;;;6.00;99.90;;;;;;5015598;28;20187;-81
2024/02/01 04:45:39;;;;;;;20.13;15.47;;;6.00;99.90;;;;;;5015708;28;20187;-82
2024/02/01 04:48:10;;;;;;;21.20;15.70;;;6.00;99.90;;;;;;5002796;28;20561;-82
2024/02/01 04:50:39;;;;;;;24.53;15.73;;;6.10;99.90;;;;;;5011680;28;20187;-82
2024/02/01 04:53:08;;;;;;;19.97;15.50;;;6.00;99.90;;;;;;4994551;28;20192;-83
2024/02/01 04:55:34;;;;;;;22.10;15.10;;;6.10;99.90;;;;;;5001856;28;20187;-82
2024/02/01 04:58:00;;;;;;;19.83;15.40;;;6.10;99.90;;;;;;4997874;28;20195;-83
2024/02/01 05:00:27;;;;;;;19.80;13.70;;;6.10;99.90;;;;;;5007775;28;20195;-82
2024/02/01 05:02:54;;;;;;;19.37;14.83;;;6.10;99.90;;;;;;4994503;28;20245;-84
2024/02/01 05:05:20;;;;;;;18.90;14.67;;;6.20;99.90;;;;;;4994587;28;20192;-82
2024/02/01 05:07:46;;;;;;;19.77;15.50;;;6.10;99.90;;;;;;4995942;28;20191;-85
2024/02/01 05:10:13;;;;;;;17.87;14.33;;;6.10;99.90;;;;;;5015251;28;20191;-83
2024/02/01 05:12:40;;;;;;;19.33;14.67;;;6.20;99.90;;;;;;5006307;28;20211;-83
2024/02/01 05:15:07;;;;;;;19.33;15.43;;;6.20;99.90;;;;;;4994581;28;20277;-84
2024/02/01 05:17:36;;;;;;;18.33;14.10;;;6.20;99.90;;;;;;5010929;28;20608;-83
2024/02/01 05:20:08;;;;;;;17.80;14.27;;;6.30;99.90;;;;;;5014913;28;20187;-83
2024/02/01 05:22:43;;;;;;;18.70;13.70;;;6.30;99.90;;;;;;5014796;28;20272;-83
2024/02/01 05:25:15;;;;;;;18.90;14.43;;;6.30;99.90;;;;;;5001814;28;20187;-83
2024/02/01 05:27:44;;;;;;;20.07;14.83;;;6.30;99.90;;;;;;5003534;28;20194;-83
2024/02/01 05:30:11;;;;;;;18.90;14.87;;;6.30;99.90;;;;;;5001487;28;20214;-82
2024/02/01 05:32:48;;;;;;;17.57;14.10;;;6.40;99.90;;;;;;5002977;28;20628;-83
2024/02/01 05:35:15;;;;;;;18.40;14.40;;;6.30;99.90;;;;;;5001007;28;20618;-83
2024/02/01 05:37:46;;;;;;;18.00;13.60;;;6.50;99.90;;;;;;4995905;28;20232;-81
2024/02/01 05:40:17;;;;;;;19.17;13.40;;;6.60;99.90;;;;;;4993705;28;20196;-82
2024/02/01 05:42:46;;;;;;;16.57;12.50;;;6.60;99.90;;;;;;5009114;28;20637;-83
2024/02/01 05:45:13;;;;;;;15.27;12.67;;;6.70;99.90;;;;;;5001028;28;20198;-82
2024/02/01 05:47:39;;;;;;;14.27;12.10;;;6.70;99.90;;;;;;5010861;28;20183;-81
2024/02/01 05:50:12;;;;;;;15.73;11.53;;;6.80;99.90;;;;;;4993509;28;20648;-81
2024/02/01 05:52:38;;;;;;;13.63;11.20;;;6.90;99.90;;;;;;4993419;28;20198;-82
2024/02/01 05:55:06;;;;;;;14.63;11.40;;;6.90;99.90;;;;;;4996680;28;20179;-83
2024/02/01 05:57:33;;;;;;;13.30;10.57;;;6.90;99.90;;;;;;4998020;28;20187;-82
2024/02/01 06:00:07;;;;;;;14.03;11.20;;;6.90;99.90;;;;;;5005240;28;20270;-82
2024/02/01 06:02:33;;;;;;;13.60;10.73;;;7.00;99.90;;;;;;4997881;28;20225;-81
2024/02/01 06:05:00;;;;;;;12.67;10.20;;;6.90;99.90;;;;;;4996009;28;20215;-82
2024/02/01 06:07:25;;;;;;;12.90;10.70;;;6.90;99.90;;;;;;4997892;28;20215;-83
2024/02/01 06:09:51;;;;;;;14.33;10.00;;;6.90;99.90;;;;;;4994086;28;20886;-83
2024/02/01 06:12:17;;;;;;;11.60;9.97;;;7.00;99.90;;;;;;5007280;28;20200;-82
2024/02/01 06:14:43;;;;;;;14.27;9.80;;;6.90;99.90;;;;;;4992667;28;20571;-82
2024/02/01 06:17:09;;;;;;;14.37;10.47;;;6.80;99.90;;;;;;5000292;28;20187;-83
2024/02/01 06:19:35;;;;;;;12.57;8.90;;;6.70;99.90;;;;;;5000964;28;20183;-83
2024/02/01 06:22:06;;;;;;;12.53;8.40;;;6.60;99.90;;;;;;4992128;28;20528;-83
2024/02/01 06:24:35;;;;;;;10.33;7.70;;;6.60;99.90;;;;;;5000182;28;20200;-82
2024/02/01 06:27:01;;;;;;;11.93;8.13;;;6.60;99.90;;;;;;4994705;28;20252;-82
2024/02/01 06:29:27;;;;;;;10.93;7.83;;;6.60;99.90;;;;;;4997827;28;20904;-82
2024/02/01 06:31:53;;;;;;;9.13;7.07;;;6.60;99.90;;;;;;4994919;28;20184;-82
2024/02/01 06:34:26;;;;;;;10.97;7.43;;;6.60;99.90;;;;;;5012792;28;20278;-83
2024/02/01 06:36:58;;;;;;;12.03;7.77;;;6.50;99.90;;;;;;4995977;28;20239;-82
2024/02/01 06:42:32;;;;;;;9.17;7.40;;;6.50;99.90;;;;;;4987918;28;20653;-82
2024/02/01 06:45:19;;;;;;;10.27;7.10;;;6.50;99.90;;;;;;4996631;28;20591;-83
2024/02/01 06:47:49;;;;;;;12.43;6.93;;;6.50;99.90;;;;;;5013643;28;20242;-82
2024/02/01 06:50:16;;;;;;;9.43;6.50;;;6.60;99.90;;;;;;4999961;28;20222;-82
2024/02/01 06:52:43;;;;;;;11.83;6.23;;;6.60;99.90;;;;;;5010685;28;20175;-81
2024/02/01 07:00:51;;;;;;;11.30;5.40;;;6.60;99.90;;;;;;5017972;28;20560;-83
2024/02/01 07:16:21;;;;;;;15.73;6.27;;;6.40;99.90;;;;;;5013058;28;20271;-83
2024/02/01 07:19:10;;;;;;;15.17;5.30;;;6.20;99.90;;;;;;4997107;28;20195;-82
2024/02/01 07:24:38;;;;;;;16.80;6.97;;;6.30;99.90;;;;;;5011952;28;20183;-82
2024/02/01 08:00:27;;;;;;;15.50;3.90;;;6.30;99.90;;;;;;5016971;28;20182;-83
2024/02/01 08:03:22;;;;;;;15.07;5.07;;;6.30;99.90;;;;;;5007218;28;20188;-83
2024/02/01 08:08:35;;;;;;;17.97;4.40;;;6.30;99.90;;;;;;4999534;28;20210;-83
2024/02/01 08:11:02;;;;;;;12.30;3.80;;;6.40;99.90;;;;;;4998998;28;20199;-83
2024/02/01 08:13:28;;;;;;;17.80;4.07;;;6.40;99.90;;;;;;5016734;28;20187;-84
2024/02/01 08:15:55;;;;;;;19.17;6.27;;;6.40;99.90;;;;;;5016533;28;20179;-83
2024/02/01 08:18:34;;;;;;;16.87;3.67;;;6.50;99.90;;;;;;5014979;28;20197;-83
2024/02/01 08:21:04;;;;;;;18.60;3.47;;;6.40;99.90;;;;;;4998545;28;20251;-82
2024/02/01 08:23:30;;;;;;;14.00;3.23;;;6.30;99.90;;;;;;4997865;28;20176;-82
2024/02/01 08:26:02;;;;;;;15.50;3.60;;;6.40;99.90;;;;;;4997134;28;20188;-81
2024/02/01 08:28:32;;;;;;;14.53;3.83;;;6.30;99.90;;;;;;4993922;28;20224;-81
2024/02/01 08:31:02;;;;;;;19.47;3.67;;;6.30;99.90;;;;;;4999354;28;20229;-81
2024/02/01 08:33:29;;;;;;;14.30;2.33;;;6.20;99.90;;;;;;4996436;28;20564;-80
2024/02/01 08:35:54;;;;;;;19.10;3.00;;;6.10;99.90;;;;;;5007975;28;20239;-82
2024/02/01 08:38:21;;;;;;;20.00;3.43;;;6.10;99.90;;;;;;4996322;28;20257;-81
2024/02/01 08:40:47;;;;;;;18.23;3.47;;;6.00;99.90;;;;;;4996159;28;20180;-81
2024/02/01 08:43:13;;;;;;;17.50;2.60;;;6.20;99.90;;;;;;5007069;28;20183;-80
2024/02/01 08:45:44;;;;;;;14.73;2.90;;;6.30;99.90;;;;;;4997203;28;20184;-80
2024/02/01 08:48:11;;;;;;;15.80;2.87;;;6.30;99.90;;;;;;4995605;28;20556;-82
2024/02/01 08:50:42;;;;;;;14.93;2.80;;;6.30;99.90;;;;;;5003497;28;20190;-81
2024/02/01 08:53:12;;;;;;;22.80;2.77;;;6.30;99.90;;;;;;4998823;28;20331;-81
2024/02/01 08:55:39;;;;;;;15.43;3.10;;;6.30;99.90;;;;;;5001441;28;20190;-81
2024/02/01 08:58:08;;;;;;;22.60;3.70;;;6.40;99.90;;;;;;5003106;28;20214;-81
2024/02/01 09:00:38;;;;;;;17.00;3.10;;;6.50;99.90;;;;;;5005023;28;20206;-82
2024/02/01 09:03:06;;;;;;;24.50;3.60;;;6.50;99.90;;;;;;4995917;28;20183;-80
2024/02/01 09:05:42;;;;;;;20.27;3.70;;;6.40;99.90;;;;;;5007782;28;20737;-81
2024/02/01 09:08:12;;;;;;;21.17;4.00;;;6.40;99.90;;;;;;4993889;28;20679;-81
2024/02/01 09:10:50;;;;;;;20.80;4.00;;;6.40;99.90;;;;;;5005158;28;20183;-82
2024/02/01 09:13:23;;;;;;;16.77;3.87;;;6.60;99.90;;;;;;4996006;28;20187;-82
2024/02/01 09:15:49;;;;;;;16.90;3.47;;;6.50;99.90;;;;;;5004741;28;20277;-81
2024/02/01 09:18:18;;;;;;;13.90;3.97;;;6.50;99.90;;;;;;4995133;28;20326;-83
2024/02/01 09:20:44;;;;;;;18.10;3.63;;;6.50;99.90;;;;;;4999403;28;20272;-79
2024/02/01 09:23:14;;;;;;;18.27;3.93;;;6.60;99.90;;;;;;5006961;28;20183;-82
2024/02/01 09:25:41;;;;;;;16.20;4.30;;;6.60;99.90;;;;;;4996518;28;20615;-81
2024/02/01 09:28:15;;;;;;;18.13;4.23;;;6.70;99.90;;;;;;4990901;28;20219;-81
2024/02/01 09:30:45;;;;;;;22.20;4.00;;;6.70;99.90;;;;;;4994120;28;20191;-82
2024/02/01 09:33:16;;;;;;;20.00;3.70;;;6.60;99.90;;;;;;4991466;28;20338;-81
2024/02/01 09:35:43;;;;;;;21.30;3.43;;;6.60;99.90;;;;;;4995438;28;20187;-82
2024/02/01 09:38:09;;;;;;;21.43;6.27;;;6.70;99.90;;;;;;4999285;28;20191;-82
2024/02/01 09:40:41;;;;;;;18.90;3.20;;;6.70;99.90;;;;;;5003213;28;20777;-82
2024/02/01 09:43:17;;;;;;;19.60;4.00;;;6.80;99.90;;;;;;5003920;28;20622;-81
2024/02/01 09:45:44;;;;;;;23.03;4.87;;;6.90;99.90;;;;;;5011206;28;20645;-82
2024/02/01 09:48:15;;;;;;;18.47;3.60;;;6.90;99.90;;;;;;5008989;28;20571;-81
2024/02/01 09:50:47;;;;;;;20.90;4.33;;;6.90;99.90;;;;;;4991550;28;20521;-81
2024/02/01 09:53:20;;;;;;;20.43;4.20;;;7.00;99.90;;;;;;5003226;28;20529;-81
2024/02/01 09:55:48;;;;;;;21.20;3.80;;;7.00;99.90;;;;;;4995947;28;20196;-80
2024/02/01 09:58:13;;;;;;;17.17;3.43;;;7.00;99.90;;;;;;5001087;28;20199;-81
2024/02/01 10:00:39;;;;;;;23.27;3.33;;;6.90;99.90;;;;;;5008033;28;20517;-82
2024/02/01 10:03:07;;;;;;;18.17;3.33;;;7.00;99.90;;;;;;5003618;28;20628;-83
2024/02/01 10:05:34;;;;;;;24.23;4.30;;;7.10;99.90;;;;;;4993566;28;20190;-82
2024/02/01 10:08:10;;;;;;;19.37;3.93;;;7.10;99.90;;;;;;4994696;28;20249;-82
2024/02/01 10:10:38;;;;;;;19.47;3.67;;;7.20;99.90;;;;;;5005630;28;20166;-83
2024/02/01 10:13:13;;;;;;;18.27;3.10;;;7.30;99.90;;;;;;5003421;28;20501;-83
2024/02/01 10:15:46;;;;;;;19.57;3.40;;;7.30;99.90;;;;;;4993824;28;20223;-82
2024/02/01 10:18:15;;;;;;;17.23;3.93;;;7.30;99.90;;;;;;5000097;28;20681;-82
2024/02/01 10:20:46;;;;;;;27.63;4.37;;;7.30;99.90;;;;;;4993855;28;20187;-80
2024/02/01 10:23:13;;;;;;;25.50;3.47;;;7.30;99.90;;;;;;4993675;28;21938;-82
2024/02/01 10:25:43;;;;;;;17.00;3.57;;;7.30;99.90;;;;;;4996148;28;20262;-82
2024/02/01 10:28:11;;;;;;;20.00;4.33;;;7.20;99.90;;;;;;4991795;28;20207;-83
2024/02/01 10:30:45;;;;;;;16.37;3.40;;;7.10;99.90;;;;;;4996813;28;20195;-82
2024/02/01 10:33:15;;;;;;;20.27;4.23;;;7.00;99.90;;;;;;5000048;28;20198;-81
2024/02/01 10:35:47;;;;;;;20.70;3.33;;;7.10;99.90;;;;;;4997299;28;20640;-83
2024/02/01 10:38:20;;;;;;;20.37;4.17;;;7.20;99.90;;;;;;5004724;28;20182;-84
2024/02/01 10:40:58;;;;;;;24.50;4.47;;;7.30;99.90;;;;;;5012614;28;20302;-82
2024/02/01 10:43:33;;;;;;;21.13;3.40;;;7.20;99.90;;;;;;4998744;28;20522;-83
2024/02/01 10:46:06;;;;;;;22.00;3.90;;;7.40;99.90;;;;;;5005480;28;20186;-82
2024/02/01 10:49:04;;;;;;;24.50;3.70;;;7.40;99.90;;;;;;5002622;28;20258;-82
2024/02/01 10:51:31;;;;;;;16.00;3.33;;;7.30;99.90;;;;;;5010603;28;20645;-83
2024/02/01 10:53:59;;;;;;;21.23;3.83;;;7.40;99.90;;;;;;4998176;28;20199;-84
2024/02/01 10:56:29;;;;;;;20.33;4.23;;;7.40;99.90;;;;;;5009623;28;20180;-83
2024/02/01 10:59:07;;;;;;;15.53;3.43;;;7.50;99.90;;;;;;4997193;28;20543;-82
2024/02/01 11:01:34;;;;;;;21.50;3.80;;;7.50;99.90;;;;;;4997629;28;20190;-83
2024/02/01 11:04:05;;;;;;;23.03;4.00;;;7.50;99.90;;;;;;4994744;28;20199;-82
2024/02/01 11:06:32;;;;;;;19.23;3.90;;;7.50;99.90;;;;;;4998348;28;20262;-82
2024/02/01 11:09:05;;;;;;;22.47;3.83;;;7.50;99.90;;;;;;4996851;28;20613;-82
2024/02/01 11:11:32;;;;;;;14.40;2.97;;;7.50;99.90;;;;;;4999407;28;20233;-82
2024/02/01 11:14:09;;;;;;;19.53;3.87;;;7.50;99.90;;;;;;5008102;28;20214;-82
2024/02/01 11:17:02;;;;;;;26.10;3.80;;;7.50;99.90;;;;;;4995456;28;20196;-82
2024/02/01 11:19:34;;;;;;;17.87;3.27;;;7.70;99.90;;;;;;4998737;28;20353;-83
2024/02/01 11:22:01;;;;;;;18.50;3.67;;;7.70;99.90;;;;;;5004833;28;20735;-82
2024/02/01 11:24:32;;;;;;;24.07;4.13;;;7.90;99.90;;;;;;5001955;28;20214;-85
2024/02/01 11:27:00;;;;;;;23.10;3.83;;;8.00;99.90;;;;;;5005160;28;20670;-83
2024/02/01 11:29:35;;;;;;;22.73;3.87;;;7.90;99.90;;;;;;5009506;28;20255;-81
2024/02/01 11:32:06;;;;;;;15.33;3.20;;;7.80;99.90;;;;;;5015580;28;20178;-83
2024/02/01 11:34:33;;;;;;;18.37;3.13;;;7.80;99.90;;;;;;5008603;28;20279;-83
2024/02/01 11:37:00;;;;;;;14.23;2.90;;;7.80;99.90;;;;;;4997635;28;20235;-83
2024/02/01 11:39:29;;;;;;;22.03;3.10;;;7.70;99.90;;;;;;5006739;28;20657;-84
2024/02/01 11:42:21;;;;;;;20.13;3.40;;;7.60;99.90;;;;;;4996577;28;20194;-83
2024/02/01 11:44:48;;;;;;;18.70;3.17;;;7.60;99.90;;;;;;4996122;28;20286;-83
2024/02/01 11:47:14;;;;;;;22.77;3.80;;;7.70;99.90;;;;;;5007078;28;20569;-82
2024/02/01 11:49:41;;;;;;;26.73;4.33;;;8.00;99.90;;;;;;5006804;28;20215;-84
2024/02/01 11:52:32;;;;;;;26.83;3.03;;;8.10;99.90;;;;;;4993417;28;20226;-83
2024/02/01 11:54:58;;;;;;;21.53;4.13;;;8.20;99.90;;;;;;4993603;28;20195;-84
2024/02/01 11:57:25;;;;;;;21.13;4.10;;;8.20;99.90;;;;;;4993698;28;20215;-83
2024/02/01 11:59:55;;;;;;;25.43;3.63;;;8.20;99.90;;;;;;5012261;28;20231;-83
2024/02/01 12:02:22;;;;;;;20.27;4.43;;;8.10;99.90;;;;;;4994581;28;20196;-83
2024/02/01 12:04:48;;;;;;;28.10;4.37;;;8.20;99.90;;;;;;4994703;28;20222;-83
2024/02/01 12:07:18;;;;;;;19.70;3.53;;;7.90;99.90;;;;;;4994836;28;20191;-84
2024/02/01 12:09:48;;;;;;;19.63;3.87;;;7.70;99.90;;;;;;4994740;28;20215;-83
2024/02/01 12:12:19;;;;;;;19.63;3.50;;;7.60;99.90;;;;;;5011044;28;20266;-84
2024/02/01 12:14:45;;;;;;;23.37;4.73;;;7.90;99.90;;;;;;4994943;28;20192;-82
2024/02/01 12:17:17;;;;;;;17.43;3.37;;;7.90;99.90;;;;;;5014966;28;20176;-84
2024/02/01 12:19:46;;;;;;;16.73;3.50;;;8.10;99.90;;;;;;5015361;28;20214;-84
2024/02/01 12:22:13;;;;;;;16.10;3.80;;;8.00;99.90;;;;;;5002041;28;20290;-83
2024/02/01 12:24:41;;;;;;;21.73;4.27;;;8.00;99.90;;;;;;4994770;28;20722;-84
2024/02/01 12:27:08;;;;;;;18.33;3.40;;;8.10;99.90;;;;;;4994333;28;20588;-83
2024/02/01 12:29:34;;;;;;;17.30;3.57;;;8.10;99.90;;;;;;4994495;28;20219;-83
2024/02/01 12:32:00;;;;;;;19.57;2.80;;;8.20;99.90;;;;;;4994545;28;20607;-84
2024/02/01 12:34:26;;;;;;;16.40;3.10;;;8.40;99.90;;;;;;4994590;28;20565;-84
2024/02/01 12:36:53;;;;;;;18.87;3.60;;;8.60;99.90;;;;;;5003543;28;20334;-83
2024/02/01 12:39:19;;;;;;;17.83;3.47;;;8.60;99.90;;;;;;5001306;28;20195;-84
2024/02/01 12:41:45;;;;;;;13.60;3.70;;;8.50;99.90;;;;;;4994425;28;20192;-84
2024/02/01 12:44:14;;;;;;;19.87;3.40;;;8.40;99.90;;;;;;5015252;28;20190;-83
2024/02/01 12:46:43;;;;;;;20.17;3.63;;;8.30;99.90;;;;;;4998008;28;20191;-83
2024/02/01 12:49:13;;;;;;;23.50;3.90;;;8.10;99.90;;;;;;4994141;28;20243;-84
2024/02/01 12:51:43;;;;;;;18.63;3.30;;;8.00;99.90;;;;;;5002387;28;20638;-84
2024/02/01 12:54:10;;;;;;;13.20;2.53;;;7.90;99.90;;;;;;4990560;28;20499;-83
2024/02/01 12:56:39;;;;;;;18.67;3.73;;;7.90;99.90;;;;;;5007846;28;20188;-84
2024/02/01 12:59:09;;;;;;;20.30;3.47;;;7.90;99.90;;;;;;4997205;28;20622;-83
2024/02/01 13:01:38;;;;;;;24.23;3.20;;;7.80;99.90;;;;;;4998403;28;20749;-83
2024/02/01 13:04:05;;;;;;;17.60;3.50;;;7.80;99.90;;;;;;4996877;28;20217;-86
2024/02/01 13:06:31;;;;;;;19.07;3.63;;;7.70;99.90;;;;;;4998945;28;20195;-84
2024/02/01 13:08:57;;;;;;;18.47;3.17;;;7.70;99.90;;;;;;5003765;28;20603;-83
2024/02/01 13:11:27;;;;;;;16.67;3.20;;;7.50;99.90;;;;;;4999542;28;20192;-83
2024/02/01 13:13:55;;;;;;;25.20;4.00;;;7.60;99.90;;;;;;5003201;28;20600;-84
2024/02/01 13:16:26;;;;;;;14.47;3.50;;;7.60;99.90;;;;;;4999582;28;20279;-84
2024/02/01 13:18:53;;;;;;;16.33;3.27;;;7.90;99.90;;;;;;4994811;28;20231;-83
2024/02/01 13:21:19;;;;;;;21.03;3.73;;;8.20;99.90;;;;;;5000063;28;20196;-83
2024/02/01 13:23:46;;;;;;;19.10;3.73;;;8.40;99.90;;;;;;4993569;28;20270;-84
2024/02/01 13:26:12;;;;;;;21.73;3.57;;;8.50;99.90;;;;;;5003038;28;20184;-84
2024/02/01 13:28:38;;;;;;;14.73;2.90;;;8.50;99.90;;;;;;5010144;28;20215;-84
2024/02/01 13:31:05;;;;;;;20.20;4.57;;;8.50;99.90;;;;;;5013361;28;20573;-84
2024/02/01 13:33:31;;;;;;;20.37;3.67;;;8.50;99.90;;;;;;4999602;28;20198;-83
2024/02/01 13:35:57;;;;;;;17.30;3.93;;;8.40;99.90;;;;;;4996810;28;20268;-84
2024/02/01 13:38:24;;;;;;;16.43;3.27;;;8.20;99.90;;;;;;4993874;28;20630;-84
2024/02/01 13:40:50;;;;;;;17.27;2.97;;;8.20;99.90;;;;;;5011528;28;20614;-84
2024/02/01 13:43:17;;;;;;;23.60;3.90;;;8.20;99.90;;;;;;4999438;28;20187;-83
2024/02/01 13:45:43;;;;;;;15.27;3.20;;;8.10;99.90;;;;;;4992670;28;20240;-84
2024/02/01 13:48:11;;;;;;;18.93;3.60;;;8.00;99.90;;;;;;5001109;28;20188;-83
2024/02/01 13:50:38;;;;;;;19.87;4.43;;;8.00;99.90;;;;;;4992975;28;20634;-83
2024/02/01 13:53:04;;;;;;;19.13;3.27;;;7.90;99.90;;;;;;4994005;28;20244;-85